createdAt,value
2022-09-26T00:00:02.441Z,56.67
2022-09-26T00:05:04.696Z,81.90
2022-09-26T00:09:57.223Z,79.20
2022-09-26T00:14:51.079Z,59.00
2022-09-26T00:19:43.553Z,60.80
2022-09-26T00:24:36.144Z,60.27
2022-09-26T00:29:28.610Z,50.80
2022-09-26T00:34:22.525Z,53.50
2022-09-26T00:39:16.360Z,50.03
2022-09-26T00:44:27.443Z,48.50
2022-09-26T00:49:26.038Z,47.23
2022-09-26T00:54:20.148Z,60.07
2022-09-26T00:59:15.551Z,52.90
2022-09-26T01:04:08.609Z,54.67
2022-09-26T01:09:01.758Z,55.40
2022-09-26T01:13:56.060Z,50.77
2022-09-26T01:18:50.154Z,55.87
2022-09-26T01:23:56.590Z,54.40
2022-09-26T01:28:58.698Z,49.10
2022-09-26T01:33:58.383Z,55.90
2022-09-26T01:38:57.826Z,65.23
2022-09-26T01:43:51.816Z,57.80
2022-09-26T01:48:45.468Z,59.90
2022-09-26T01:53:43.295Z,65.57
2022-09-26T01:58:37.865Z,68.13
2022-09-26T02:03:32.615Z,74.10
2022-09-26T02:08:27.251Z,52.30
2022-09-26T02:13:26.193Z,46.33
2022-09-26T02:18:21.349Z,49.23
2022-09-26T02:23:13.915Z,47.43
2022-09-26T02:28:06.616Z,59.93
2022-09-26T02:33:00.730Z,46.10
2022-09-26T02:37:53.472Z,33.57
2022-09-26T02:42:51.811Z,32.27
2022-09-26T02:47:55.072Z,50.40
2022-09-26T02:52:52.958Z,71.07
2022-09-26T02:58:04.002Z,70.67
2022-09-26T03:02:58.642Z,69.10
2022-09-26T03:07:54.308Z,62.53
2022-09-26T03:12:46.900Z,78.63
2022-09-26T03:17:42.534Z,55.70
2022-09-26T03:22:35.552Z,56.53
2022-09-26T03:27:32.029Z,80.33
2022-09-26T03:32:24.704Z,83.20
2022-09-26T03:37:17.212Z,94.73
2022-09-26T03:42:10.578Z,46.83
2022-09-26T03:47:05.806Z,31.53
2022-09-26T03:52:04.576Z,59.73
2022-09-26T03:56:57.198Z,48.50
2022-09-26T04:01:50.237Z,68.43
2022-09-26T04:06:44.808Z,62.20
2022-09-26T04:11:37.885Z,46.17
2022-09-26T04:16:32.526Z,39.50
2022-09-26T04:21:34.273Z,22.70
2022-09-26T04:26:28.670Z,15.70
2022-09-26T04:31:21.681Z,16.73
2022-09-26T04:36:19.801Z,15.70
2022-09-26T04:41:13.637Z,52.30
2022-09-26T04:46:09.251Z,50.63
2022-09-26T04:51:05.797Z,49.27
2022-09-26T04:55:58.394Z,37.70
2022-09-26T05:00:51.139Z,37.30
2022-09-26T05:05:55.279Z,25.90
2022-09-26T05:10:53.208Z,19.97
2022-09-26T05:15:45.772Z,17.30
2022-09-26T05:20:38.840Z,15.93
2022-09-26T05:25:54.141Z,12.77
2022-09-26T05:30:48.245Z,13.67
2022-09-26T05:35:41.502Z,27.40
2022-09-26T05:40:53.238Z,42.13
2022-09-26T05:45:50.871Z,30.20
2022-09-26T05:50:50.625Z,24.60
2022-09-26T05:55:44.510Z,27.03
2022-09-26T06:00:47.821Z,31.47
2022-09-26T06:05:41.861Z,35.30
2022-09-26T06:10:39.057Z,41.33
2022-09-26T06:15:33.557Z,34.90
2022-09-26T06:20:26.307Z,23.60
2022-09-26T06:25:18.869Z,24.07
2022-09-26T06:30:12.090Z,22.27
2022-09-26T06:35:08.068Z,19.13
2022-09-26T06:40:11.587Z,21.03
2022-09-26T06:45:05.712Z,19.40
2022-09-26T06:50:18.364Z,19.13
2022-09-26T06:55:17.245Z,14.20
2022-09-26T07:00:10.957Z,14.77
2022-09-26T07:05:24.376Z,13.40
2022-09-26T07:10:19.553Z,12.63
2022-09-26T07:15:21.385Z,11.07
2022-09-26T07:20:15.584Z,10.20
2022-09-26T07:25:33.215Z,9.87
2022-09-26T07:30:28.102Z,8.13
2022-09-26T07:35:28.782Z,8.30
2022-09-26T07:40:22.740Z,8.33
2022-09-26T07:45:27.996Z,11.80
2022-09-26T07:50:21.869Z,13.50
2022-09-26T07:55:29.234Z,9.60
2022-09-26T08:00:54.391Z,6.70
2022-09-26T08:06:14.690Z,7.43
2022-09-26T08:11:15.352Z,5.87
2022-09-26T08:16:25.993Z,8.23
2022-09-26T08:21:22.181Z,6.00
2022-09-26T08:26:18.189Z,6.30
2022-09-26T08:31:16.418Z,7.90
2022-09-26T08:36:11.831Z,7.57
2022-09-26T08:41:39.421Z,5.60
2022-09-26T08:46:59.713Z,5.60
2022-09-26T08:52:22.983Z,6.70
2022-09-26T08:57:19.602Z,7.20
2022-09-26T09:02:13.818Z,7.73
2022-09-26T09:07:19.187Z,6.50
2022-09-26T09:12:15.554Z,4.77
2022-09-26T09:17:15.041Z,5.83
2022-09-26T09:22:21.328Z,4.63
2022-09-26T09:27:54.555Z,4.97
2022-09-26T09:32:52.820Z,6.40
2022-09-26T09:37:56.758Z,5.97
2022-09-26T09:43:14.436Z,6.10
2022-09-26T09:48:10.478Z,4.67
2022-09-26T09:53:10.894Z,6.30
2022-09-26T09:58:16.779Z,7.70
2022-09-26T10:03:15.674Z,6.73
2022-09-26T10:08:12.097Z,5.70
2022-09-26T10:13:25.856Z,4.30
2022-09-26T10:18:53.799Z,4.43
2022-09-26T10:23:47.787Z,8.73
2022-09-26T10:29:02.675Z,4.50
2022-09-26T10:33:57.636Z,6.20
2022-09-26T10:39:10.395Z,5.50
2022-09-26T10:44:07.883Z,6.13
2022-09-26T10:49:29.491Z,5.40
2022-09-26T10:55:03.748Z,8.30
2022-09-26T10:59:59.563Z,6.23
2022-09-26T11:05:12.726Z,5.50
2022-09-26T11:10:24.982Z,7.47
2022-09-26T11:15:29.544Z,5.90
2022-09-26T11:20:32.330Z,5.10
2022-09-26T11:25:26.453Z,5.80
2022-09-26T11:30:21.014Z,5.20
2022-09-26T11:35:29.681Z,5.97
2022-09-26T11:40:31.606Z,7.63
2022-09-26T11:45:33.670Z,4.60
2022-09-26T11:51:14.200Z,7.33
2022-09-26T11:56:18.093Z,5.60
2022-09-26T12:01:16.573Z,5.33
2022-09-26T12:06:18.867Z,5.20
2022-09-26T12:11:19.283Z,4.50
2022-09-26T12:16:16.085Z,4.43
2022-09-26T12:21:12.321Z,2.67
2022-09-26T12:26:14.315Z,2.30
2022-09-26T12:31:13.106Z,2.90
2022-09-26T12:36:11.903Z,3.20
2022-09-26T12:41:23.058Z,4.03
2022-09-26T12:46:25.931Z,3.30
2022-09-26T12:51:23.291Z,3.23
2022-09-26T12:56:22.261Z,4.40
2022-09-26T13:01:31.063Z,3.83
2022-09-26T13:06:38.181Z,3.90
2022-09-26T13:11:38.793Z,4.43
2022-09-26T13:16:36.307Z,4.20
2022-09-26T13:21:40.138Z,3.20
2022-09-26T13:26:37.112Z,2.20
2022-09-26T13:31:32.696Z,3.20
2022-09-26T13:36:25.722Z,3.43
2022-09-26T13:41:34.943Z,2.90
2022-09-26T13:46:34.455Z,2.70
2022-09-26T13:51:39.390Z,5.23
2022-09-26T13:56:44.241Z,4.80
2022-09-26T14:01:38.216Z,3.77
2022-09-26T14:06:31.894Z,3.67
2022-09-26T14:11:27.804Z,3.43
2022-09-26T14:16:36.864Z,11.00
2022-09-26T14:21:37.301Z,3.00
2022-09-26T14:26:41.726Z,3.63
2022-09-26T14:31:38.424Z,2.97
2022-09-26T14:36:32.856Z,3.07
2022-09-26T14:41:28.522Z,2.50
2022-09-26T14:46:24.164Z,2.83
2022-09-26T14:51:25.195Z,3.33
2022-09-26T14:56:19.333Z,4.43
2022-09-26T15:01:17.998Z,3.37
2022-09-26T15:06:12.855Z,2.87
2022-09-26T15:11:06.088Z,4.43
2022-09-26T15:16:02.519Z,3.40
2022-09-26T15:21:04.020Z,5.57
2022-09-26T15:26:00.531Z,3.70
2022-09-26T15:31:12.116Z,3.87
2022-09-26T15:36:06.635Z,4.87
2022-09-26T15:41:04.193Z,4.30
2022-09-26T15:45:58.334Z,4.10
2022-09-26T15:50:52.700Z,4.47
2022-09-26T15:55:50.408Z,4.03
2022-09-26T16:00:45.484Z,5.20
2022-09-26T16:05:37.968Z,4.00
2022-09-26T16:10:33.246Z,5.60
2022-09-26T16:15:29.192Z,16.40
2022-09-26T16:20:26.169Z,3.10
2022-09-26T16:25:22.872Z,3.40
2022-09-26T16:30:30.510Z,4.77
2022-09-26T16:35:29.554Z,4.63
2022-09-26T16:40:22.559Z,4.10
2022-09-26T16:45:15.629Z,4.00
2022-09-26T16:50:17.723Z,3.90
2022-09-26T16:55:11.720Z,4.90
2022-09-26T17:00:23.304Z,4.33
2022-09-26T17:05:18.571Z,4.30
2022-09-26T17:10:12.881Z,5.03
2022-09-26T17:15:06.619Z,7.97
2022-09-26T17:20:00.942Z,4.50
2022-09-26T17:24:53.650Z,7.87
2022-09-26T17:29:49.904Z,4.70
2022-09-26T17:34:43.504Z,5.60
2022-09-26T17:39:36.007Z,7.40
2022-09-26T17:44:28.738Z,5.50
2022-09-26T17:49:27.152Z,3.70
2022-09-26T17:54:20.331Z,5.73
2022-09-26T17:59:19.125Z,13.00
2022-09-26T18:04:17.444Z,6.20
2022-09-26T18:09:15.635Z,4.03
2022-09-26T18:14:09.462Z,5.60
2022-09-26T18:19:06.252Z,4.70
2022-09-26T18:24:02.125Z,4.60
2022-09-26T18:28:56.756Z,4.60
2022-09-26T18:33:49.248Z,5.77
2022-09-26T18:38:41.718Z,4.70
2022-09-26T18:43:40.527Z,5.73
2022-09-26T18:48:37.190Z,4.10
2022-09-26T18:53:34.799Z,22.63
2022-09-26T18:58:28.220Z,5.53
2022-09-26T19:03:21.180Z,4.97
2022-09-26T19:08:25.001Z,5.20
2022-09-26T19:13:17.494Z,4.50
2022-09-26T19:18:10.288Z,7.03
2022-09-26T19:23:02.801Z,8.33
2022-09-26T19:27:56.642Z,7.73
2022-09-26T19:32:50.156Z,7.40
2022-09-26T19:37:42.659Z,9.00
2022-09-26T19:42:35.135Z,8.63
2022-09-26T19:47:29.513Z,8.00
2022-09-26T19:52:22.849Z,8.40
2022-09-26T19:57:16.113Z,10.30
2022-09-26T20:02:12.096Z,7.53
2022-09-26T20:07:06.764Z,5.33
2022-09-26T20:11:59.233Z,4.97
2022-09-26T20:16:52.181Z,5.40
2022-09-26T20:21:44.842Z,5.23
2022-09-26T20:26:40.172Z,5.20
2022-09-26T20:31:32.657Z,6.33
2022-09-26T20:36:26.516Z,3.87
2022-09-26T20:41:22.128Z,5.53
2022-09-26T20:46:16.103Z,3.40
2022-09-26T20:51:12.885Z,2.50
2022-09-26T20:56:06.966Z,2.60
2022-09-26T21:00:59.738Z,2.87
2022-09-26T21:05:53.702Z,3.80
2022-09-26T21:10:46.231Z,4.27
2022-09-26T21:15:41.410Z,5.80
2022-09-26T21:20:34.706Z,3.17
2022-09-26T21:25:51.450Z,2.27
2022-09-26T21:30:44.991Z,2.53
2022-09-26T21:35:38.958Z,2.30
2022-09-26T21:40:33.155Z,3.20
2022-09-26T21:45:27.845Z,10.30
2022-09-26T21:50:20.411Z,2.87
2022-09-26T21:55:15.129Z,2.27
2022-09-26T22:00:09.663Z,3.10
2022-09-26T22:05:07.831Z,3.93
2022-09-26T22:10:00.373Z,3.50
2022-09-26T22:14:52.860Z,3.70
2022-09-26T22:19:45.410Z,5.33
2022-09-26T22:24:39.249Z,2.57
2022-09-26T22:29:32.556Z,3.43
2022-09-26T22:34:25.655Z,4.37
2022-09-26T22:39:18.188Z,3.07
2022-09-26T22:44:12.073Z,2.63
2022-09-26T22:49:04.587Z,2.77
2022-09-26T22:53:57.090Z,3.63
2022-09-26T22:58:50.940Z,5.87
2022-09-26T23:03:44.838Z,3.83
2022-09-26T23:08:37.690Z,3.67
2022-09-26T23:13:31.414Z,4.17
2022-09-26T23:18:23.898Z,3.07
2022-09-26T23:23:17.714Z,5.43
2022-09-26T23:28:10.214Z,6.80
2022-09-26T23:33:02.684Z,4.10
2022-09-26T23:37:56.382Z,3.60
2022-09-26T23:42:50.226Z,3.50
2022-09-26T23:47:42.712Z,6.10
2022-09-26T23:52:35.346Z,3.17
2022-09-26T23:57:27.806Z,4.17
